sensor_id;sensor_type;location;lat;lon;timestamp;pressure;altitude;pressure_sealevel;temperature;humidity
16255;BME280;8235;52.198;9.904;2023-02-18T00:02:11;101171.97;;;7.34;66.83
16255;BME280;8235;52.198;9.904;2023-02-18T00:04:37;101160.41;;;7.35;67.34
16255;BME280;8235;52.198;9.904;2023-02-18T00:07:04;101171.00;;;7.35;66.58
16255;BME280;8235;52.198;9.904;2023-02-18T00:09:30;101168.38;;;7.35;66.64
16255;BME280;8235;52.198;9.904;2023-02-18T00:11:57;101156.84;;;7.36;67.39
16255;BME280;8235;52.198;9.904;2023-02-18T00:14:25;101155.13;;;7.35;67.60
16255;BME280;8235;52.198;9.904;2023-02-18T00:16:51;101155.97;;;7.36;67.34
16255;BME280;8235;52.198;9.904;2023-02-18T00:19:20;101158.56;;;7.37;66.84
16255;BME280;8235;52.198;9.904;2023-02-18T00:21:47;101168.31;;;7.37;67.52
16255;BME280;8235;52.198;9.904;2023-02-18T00:24:14;101155.13;;;7.35;67.75
16255;BME280;8235;52.198;9.904;2023-02-18T00:26:41;101162.13;;;7.36;67.03
16255;BME280;8235;52.198;9.904;2023-02-18T00:29:08;101157.69;;;7.37;67.23
16255;BME280;8235;52.198;9.904;2023-02-18T00:31:36;101163.88;;;7.37;67.20
16255;BME280;8235;52.198;9.904;2023-02-18T00:34:04;101162.13;;;7.36;67.64
16255;BME280;8235;52.198;9.904;2023-02-18T00:36:30;101155.13;;;7.35;67.32
16255;BME280;8235;52.198;9.904;2023-02-18T00:38:58;101165.88;;;7.32;67.47
16255;BME280;8235;52.198;9.904;2023-02-18T00:41:27;101169.38;;;7.32;67.64
16255;BME280;8235;52.198;9.904;2023-02-18T00:43:54;101172.88;;;7.33;67.85
16255;BME280;8235;52.198;9.904;2023-02-18T00:46:22;101166.78;;;7.31;67.67
16255;BME280;8235;52.198;9.904;2023-02-18T00:48:50;101173.88;;;7.30;67.64
16255;BME280;8235;52.198;9.904;2023-02-18T00:51:17;101169.50;;;7.29;67.69
16255;BME280;8235;52.198;9.904;2023-02-18T00:53:43;101156.25;;;7.29;67.71
16255;BME280;8235;52.198;9.904;2023-02-18T00:56:10;101163.28;;;7.30;67.40
16255;BME280;8235;52.198;9.904;2023-02-18T00:58:36;101168.50;;;7.32;67.78
16255;BME280;8235;52.198;9.904;2023-02-18T01:01:04;101171.16;;;7.32;67.93
16255;BME280;8235;52.198;9.904;2023-02-18T01:03:30;101172.09;;;7.31;67.93
16255;BME280;8235;52.198;9.904;2023-02-18T01:05:59;101172.16;;;7.29;68.52
16255;BME280;8235;52.198;9.904;2023-02-18T01:08:25;101176.59;;;7.29;68.27
16255;BME280;8235;52.198;9.904;2023-02-18T01:10:54;101176.72;;;7.26;68.52
16255;BME280;8235;52.198;9.904;2023-02-18T01:13:22;101166.09;;;7.26;68.47
16255;BME280;8235;52.198;9.904;2023-02-18T01:15:49;101164.38;;;7.25;68.67
16255;BME280;8235;52.198;9.904;2023-02-18T01:18:16;101173.19;;;7.25;68.23
16255;BME280;8235;52.198;9.904;2023-02-18T01:20:43;101167.97;;;7.24;68.97
16255;BME280;8235;52.198;9.904;2023-02-18T01:23:12;101169.81;;;7.22;68.24
16255;BME280;8235;52.198;9.904;2023-02-18T01:25:39;101171.53;;;7.23;69.53
16255;BME280;8235;52.198;9.904;2023-02-18T01:28:06;101181.25;;;7.22;68.87
16255;BME280;8235;52.198;9.904;2023-02-18T01:30:33;101175.09;;;7.22;69.15
16255;BME280;8235;52.198;9.904;2023-02-18T01:33:00;101171.53;;;7.23;69.10
16255;BME280;8235;52.198;9.904;2023-02-18T01:35:26;101164.50;;;7.22;69.80
16255;BME280;8235;52.198;9.904;2023-02-18T01:37:53;101174.25;;;7.21;69.43
16255;BME280;8235;52.198;9.904;2023-02-18T01:40:23;101174.25;;;7.21;70.13
16255;BME280;8235;52.198;9.904;2023-02-18T01:42:50;101173.38;;;7.21;70.05
16255;BME280;8235;52.198;9.904;2023-02-18T01:45:56;101170.66;;;7.22;70.30
16255;BME280;8235;52.198;9.904;2023-02-18T01:48:27;101160.13;;;7.21;70.43
16255;BME280;8235;52.198;9.904;2023-02-18T01:50:59;101161.84;;;7.22;70.24
16255;BME280;8235;52.198;9.904;2023-02-18T01:53:30;101156.50;;;7.23;71.07
16255;BME280;8235;52.198;9.904;2023-02-18T01:56:02;101157.34;;;7.24;70.45
16255;BME280;8235;52.198;9.904;2023-02-18T01:58:30;101161.69;;;7.26;70.68
16255;BME280;8235;52.198;9.904;2023-02-18T02:00:57;101166.00;;;7.29;71.01
16255;BME280;8235;52.198;9.904;2023-02-18T02:03:23;101150.09;;;7.29;71.46
16255;BME280;8235;52.198;9.904;2023-02-18T02:05:50;101147.38;;;7.30;71.54
16255;BME280;8235;52.198;9.904;2023-02-18T02:08:16;101152.69;;;7.30;71.95
16255;BME280;8235;52.198;9.904;2023-02-18T02:10:57;101146.47;;;7.31;71.81
16255;BME280;8235;52.198;9.904;2023-02-18T02:13:41;101143.75;;;7.33;72.07
16255;BME280;8235;52.198;9.904;2023-02-18T02:16:15;101136.56;;;7.35;72.38
16255;BME280;8235;52.198;9.904;2023-02-18T02:18:56;101135.69;;;7.35;72.40
16255;BME280;8235;52.198;9.904;2023-02-18T02:21:55;101120.66;;;7.35;72.41
16255;BME280;8235;52.198;9.904;2023-02-18T02:24:58;101125.91;;;7.37;73.52
16255;BME280;8235;52.198;9.904;2023-02-18T02:27:39;101112.66;;;7.37;73.52
16255;BME280;8235;52.198;9.904;2023-02-18T02:30:32;101117.88;;;7.38;74.34
16255;BME280;8235;52.198;9.904;2023-02-18T02:33:26;101114.31;;;7.39;74.92
16255;BME280;8235;52.198;9.904;2023-02-18T02:36:00;101121.34;;;7.40;74.64
16255;BME280;8235;52.198;9.904;2023-02-18T02:38:32;101124.91;;;7.39;75.12
16255;BME280;8235;52.198;9.904;2023-02-18T02:41:11;101123.19;;;7.38;76.20
16255;BME280;8235;52.198;9.904;2023-02-18T02:43:50;101119.56;;;7.41;76.57
16255;BME280;8235;52.198;9.904;2023-02-18T02:46:20;101115.13;;;7.41;76.63
16255;BME280;8235;52.198;9.904;2023-02-18T02:48:54;101110.75;;;7.40;76.43
16255;BME280;8235;52.198;9.904;2023-02-18T02:51:29;101105.38;;;7.42;76.52
16255;BME280;8235;52.198;9.904;2023-02-18T02:54:09;101110.63;;;7.43;77.59
16255;BME280;8235;52.198;9.904;2023-02-18T02:56:36;101105.25;;;7.45;77.73
16255;BME280;8235;52.198;9.904;2023-02-18T02:59:05;101100.81;;;7.45;78.24
16255;BME280;8235;52.198;9.904;2023-02-18T03:01:37;101092.88;;;7.45;78.65
16255;BME280;8235;52.198;9.904;2023-02-18T03:04:22;101097.19;;;7.48;78.04
16255;BME280;8235;52.198;9.904;2023-02-18T03:07:13;101098.84;;;7.50;78.96
16255;BME280;8235;52.198;9.904;2023-02-18T03:09:52;101086.44;;;7.51;78.57
16255;BME280;8235;52.198;9.904;2023-02-18T03:12:24;101088.16;;;7.52;79.92
16255;BME280;8235;52.198;9.904;2023-02-18T03:14:58;101083.63;;;7.54;79.95
16255;BME280;8235;52.198;9.904;2023-02-18T03:17:30;101079.13;;;7.56;80.74
16255;BME280;8235;52.198;9.904;2023-02-18T03:20:05;101074.69;;;7.56;80.64
16255;BME280;8235;52.198;9.904;2023-02-18T03:22:39;101074.69;;;7.56;80.54
16255;BME280;8235;52.198;9.904;2023-02-18T03:25:07;101078.13;;;7.58;81.96
16255;BME280;8235;52.198;9.904;2023-02-18T03:27:38;101071.97;;;7.58;81.53
16255;BME280;8235;52.198;9.904;2023-02-18T03:30:10;101071.91;;;7.59;81.60
16255;BME280;8235;52.198;9.904;2023-02-18T03:32:38;101065.75;;;7.59;82.35
16255;BME280;8235;52.198;9.904;2023-02-18T03:35:14;101055.09;;;7.60;82.40
16255;BME280;8235;52.198;9.904;2023-02-18T03:37:46;101041.81;;;7.60;83.36
16255;BME280;8235;52.198;9.904;2023-02-18T03:40:15;101037.31;;;7.62;83.51
16255;BME280;8235;52.198;9.904;2023-02-18T03:42:42;101031.09;;;7.63;83.58
16255;BME280;8235;52.198;9.904;2023-02-18T03:45:09;101025.78;;;7.63;83.84
16255;BME280;8235;52.198;9.904;2023-02-18T03:47:35;101023.13;;;7.63;83.64
16255;BME280;8235;52.198;9.904;2023-02-18T03:50:02;101018.75;;;7.62;83.76
16255;BME280;8235;52.198;9.904;2023-02-18T03:52:29;101023.13;;;7.63;84.79
16255;BME280;8235;52.198;9.904;2023-02-18T03:54:57;101024.00;;;7.64;84.45
16255;BME280;8235;52.198;9.904;2023-02-18T03:57:23;101029.31;;;7.64;84.50
16255;BME280;8235;52.198;9.904;2023-02-18T03:59:49;101025.78;;;7.63;84.49
16255;BME280;8235;52.198;9.904;2023-02-18T04:02:16;101016.91;;;7.64;84.47
16255;BME280;8235;52.198;9.904;2023-02-18T04:04:42;101020.41;;;7.65;84.90
16255;BME280;8235;52.198;9.904;2023-02-18T04:07:09;101014.25;;;7.64;85.01
16255;BME280;8235;52.198;9.904;2023-02-18T04:09:35;101011.53;;;7.66;85.40
16255;BME280;8235;52.198;9.904;2023-02-18T04:12:03;101010.69;;;7.65;85.55
16255;BME280;8235;52.198;9.904;2023-02-18T04:14:30;101006.25;;;7.66;85.12
16255;BME280;8235;52.198;9.904;2023-02-18T04:16:56;101004.44;;;7.66;85.44
16255;BME280;8235;52.198;9.904;2023-02-18T04:19:23;101001.72;;;7.68;85.67
16255;BME280;8235;52.198;9.904;2023-02-18T04:21:49;101000.81;;;7.69;85.48
16255;BME280;8235;52.198;9.904;2023-02-18T04:24:16;101000.69;;;7.71;85.99
16255;BME280;8235;52.198;9.904;2023-02-18T04:26:42;101000.63;;;7.72;85.64
16255;BME280;8235;52.198;9.904;2023-02-18T04:29:10;101003.22;;;7.74;86.48
16255;BME280;8235;52.198;9.904;2023-02-18T04:31:36;101000.50;;;7.75;87.05
16255;BME280;8235;52.198;9.904;2023-02-18T04:34:03;100992.47;;;7.77;87.34
16255;BME280;8235;52.198;9.904;2023-02-18T04:36:30;100992.41;;;7.78;87.19
16255;BME280;8235;52.198;9.904;2023-02-18T04:38:56;101001.22;;;7.79;88.17
16255;BME280;8235;52.198;9.904;2023-02-18T04:41:23;100999.44;;;7.79;88.55
16255;BME280;8235;52.198;9.904;2023-02-18T04:43:49;100999.44;;;7.79;88.91
16255;BME280;8235;52.198;9.904;2023-02-18T04:46:17;100985.31;;;7.79;89.14
16255;BME280;8235;52.198;9.904;2023-02-18T04:48:44;100977.34;;;7.79;90.17
16255;BME280;8235;52.198;9.904;2023-02-18T04:51:10;100983.59;;;7.78;89.49
16255;BME280;8235;52.198;9.904;2023-02-18T04:53:37;100975.63;;;7.78;90.34
16255;BME280;8235;52.198;9.904;2023-02-18T04:56:04;100970.34;;;7.78;91.08
16255;BME280;8235;52.198;9.904;2023-02-18T04:58:30;100965.97;;;7.77;91.50
16255;BME280;8235;52.198;9.904;2023-02-18T05:00:58;100957.16;;;7.76;91.34
16255;BME280;8235;52.198;9.904;2023-02-18T05:03:26;100955.34;;;7.77;92.20
16255;BME280;8235;52.198;9.904;2023-02-18T05:05:52;100948.34;;;7.76;92.54
16255;BME280;8235;52.198;9.904;2023-02-18T05:08:19;100953.63;;;7.76;93.22
16255;BME280;8235;52.198;9.904;2023-02-18T05:10:45;100953.63;;;7.76;93.10
16255;BME280;8235;52.198;9.904;2023-02-18T05:13:12;100943.97;;;7.75;93.41
16255;BME280;8235;52.198;9.904;2023-02-18T05:15:38;100940.50;;;7.73;93.75
16255;BME280;8235;52.198;9.904;2023-02-18T05:18:05;100933.44;;;7.73;94.03
16255;BME280;8235;52.198;9.904;2023-02-18T05:20:33;100931.69;;;7.72;94.10
16255;BME280;8235;52.198;9.904;2023-02-18T05:23:00;100930.84;;;7.72;94.38
16255;BME280;8235;52.198;9.904;2023-02-18T05:25:26;100929.91;;;7.73;94.79
16255;BME280;8235;52.198;9.904;2023-02-18T05:27:53;100927.19;;;7.74;95.26
16255;BME280;8235;52.198;9.904;2023-02-18T05:30:19;100924.41;;;7.77;95.86
16255;BME280;8235;52.198;9.904;2023-02-18T05:32:46;100914.66;;;7.78;96.10
16255;BME280;8235;52.198;9.904;2023-02-18T05:35:12;100916.38;;;7.79;96.86
16255;BME280;8235;52.198;9.904;2023-02-18T05:37:40;100912.78;;;7.80;96.67
16255;BME280;8235;52.198;9.904;2023-02-18T05:40:07;100903.06;;;7.80;98.05
16255;BME280;8235;52.198;9.904;2023-02-18T05:42:34;100895.97;;;7.81;98.04
16255;BME280;8235;52.198;9.904;2023-02-18T05:45:00;100898.53;;;7.82;98.57
16255;BME280;8235;52.198;9.904;2023-02-18T05:47:27;100898.47;;;7.84;98.43
16255;BME280;8235;52.198;9.904;2023-02-18T05:49:53;100895.69;;;7.87;99.08
16255;BME280;8235;52.198;9.904;2023-02-18T05:52:21;100888.47;;;7.89;99.66
16255;BME280;8235;52.198;9.904;2023-02-18T05:54:49;100890.19;;;7.90;100.00
16255;BME280;8235;52.198;9.904;2023-02-18T05:57:15;100882.25;;;7.90;100.00
16255;BME280;8235;52.198;9.904;2023-02-18T05:59:42;100881.31;;;7.91;100.00
16255;BME280;8235;52.198;9.904;2023-02-18T06:02:08;100871.47;;;7.93;100.00
16255;BME280;8235;52.198;9.904;2023-02-18T06:04:34;100867.81;;;7.95;100.00
16255;BME280;8235;52.198;9.904;2023-02-18T06:07:01;100861.59;;;7.96;100.00
16255;BME280;8235;52.198;9.904;2023-02-18T06:09:27;100859.72;;;7.98;100.00
16255;BME280;8235;52.198;9.904;2023-02-18T06:11:55;100858.72;;;8.01;100.00
16255;BME280;8235;52.198;9.904;2023-02-18T06:14:22;100844.59;;;8.00;100.00
16255;BME280;8235;52.198;9.904;2023-02-18T06:16:48;100850.75;;;8.01;100.00
16255;BME280;8235;52.198;9.904;2023-02-18T06:19:15;100845.47;;;8.01;100.00
16255;BME280;8235;52.198;9.904;2023-02-18T06:21:41;100852.47;;;8.02;100.00
16255;BME280;8235;52.198;9.904;2023-02-18T06:24:08;100841.00;;;8.01;100.00
16255;BME280;8235;52.198;9.904;2023-02-18T06:26:34;100844.53;;;8.02;100.00
16255;BME280;8235;52.198;9.904;2023-02-18T06:29:02;100825.03;;;8.03;100.00
16255;BME280;8235;52.198;9.904;2023-02-18T06:31:29;100839.22;;;8.02;100.00
16255;BME280;8235;52.198;9.904;2023-02-18T06:33:55;100819.72;;;8.03;100.00
16255;BME280;8235;52.198;9.904;2023-02-18T06:36:22;100817.00;;;8.05;100.00
16255;BME280;8235;52.198;9.904;2023-02-18T06:38:48;100809.91;;;8.05;100.00
16255;BME280;8235;52.198;9.904;2023-02-18T06:41:15;100813.41;;;8.06;100.00
16255;BME280;8235;52.198;9.904;2023-02-18T06:43:42;100800.16;;;8.06;100.00
16255;BME280;8235;52.198;9.904;2023-02-18T06:46:10;100800.97;;;8.06;100.00
16255;BME280;8235;52.198;9.904;2023-02-18T06:48:37;100798.31;;;8.06;100.00
16255;BME280;8235;52.198;9.904;2023-02-18T06:51:04;100783.19;;;8.08;100.00
16255;BME280;8235;52.198;9.904;2023-02-18T06:53:31;100775.22;;;8.08;100.00
16255;BME280;8235;52.198;9.904;2023-02-18T06:55:57;100770.72;;;8.10;100.00
16255;BME280;8235;52.198;9.904;2023-02-18T06:58:24;100761.91;;;8.10;100.00
16255;BME280;8235;52.198;9.904;2023-02-18T07:00:50;100761.81;;;8.11;100.00
16255;BME280;8235;52.198;9.904;2023-02-18T07:03:18;100757.28;;;8.13;100.00
16255;BME280;8235;52.198;9.904;2023-02-18T07:05:45;100749.34;;;8.13;100.00
16255;BME280;8235;52.198;9.904;2023-02-18T07:08:11;100748.41;;;8.14;100.00
16255;BME280;8235;52.198;9.904;2023-02-18T07:10:38;100739.50;;;8.15;100.00
16255;BME280;8235;52.198;9.904;2023-02-18T07:13:04;100738.56;;;8.16;100.00
16255;BME280;8235;52.198;9.904;2023-02-18T07:15:31;100728.81;;;8.17;100.00
16255;BME280;8235;52.198;9.904;2023-02-18T07:17:58;100726.09;;;8.18;100.00
16255;BME280;8235;52.198;9.904;2023-02-18T07:20:26;100723.38;;;8.20;100.00
16255;BME280;8235;52.198;9.904;2023-02-18T07:22:53;100706.44;;;8.22;100.00
16255;BME280;8235;52.198;9.904;2023-02-18T07:25:20;100714.19;;;8.25;100.00
16255;BME280;8235;52.198;9.904;2023-02-18T07:27:46;100702.41;;;8.31;100.00
16255;BME280;8235;52.198;9.904;2023-02-18T07:30:13;100696.91;;;8.35;100.00
16255;BME280;8235;52.198;9.904;2023-02-18T07:32:40;100687.56;;;8.44;100.00
16255;BME280;8235;52.198;9.904;2023-02-18T07:35:07;100675.63;;;8.53;100.00
16255;BME280;8235;52.198;9.904;2023-02-18T07:37:35;100679.63;;;8.60;100.00
16255;BME280;8235;52.198;9.904;2023-02-18T07:40:02;100671.19;;;8.69;100.00
16255;BME280;8235;52.198;9.904;2023-02-18T07:42:28;100668.97;;;8.77;100.00
16255;BME280;8235;52.198;9.904;2023-02-18T07:44:55;100651.66;;;8.86;100.00
16255;BME280;8235;52.198;9.904;2023-02-18T07:47:21;100669.06;;;8.91;100.00
16255;BME280;8235;52.198;9.904;2023-02-18T07:49:48;100668.78;;;8.96;100.00
16255;BME280;8235;52.198;9.904;2023-02-18T07:52:15;100664.22;;;8.98;100.00
16255;BME280;8235;52.198;9.904;2023-02-18T07:54:43;100663.03;;;9.03;100.00
16255;BME280;8235;52.198;9.904;2023-02-18T07:57:09;100662.94;;;9.05;100.00
16255;BME280;8235;52.198;9.904;2023-02-18T07:59:35;100661.75;;;9.11;100.00
16255;BME280;8235;52.198;9.904;2023-02-18T08:02:02;100655.28;;;9.15;100.00
16255;BME280;8235;52.198;9.904;2023-02-18T08:04:29;100649.72;;;9.19;100.00
16255;BME280;8235;52.198;9.904;2023-02-18T08:06:56;100646.97;;;9.21;100.00
16255;BME280;8235;52.198;9.904;2023-02-18T08:09:22;100651.28;;;9.23;100.00
16255;BME280;8235;52.198;9.904;2023-02-18T08:11:50;100656.41;;;9.26;100.00
16255;BME280;8235;52.198;9.904;2023-02-18T08:14:16;100628.03;;;9.27;100.00
16255;BME280;8235;52.198;9.904;2023-02-18T08:16:43;100633.09;;;9.31;100.00
16255;BME280;8235;52.198;9.904;2023-02-18T08:19:10;100638.13;;;9.36;100.00
16255;BME280;8235;52.198;9.904;2023-02-18T08:21:36;100634.44;;;9.38;100.00
16255;BME280;8235;52.198;9.904;2023-02-18T08:24:03;100633.47;;;9.39;100.00
16255;BME280;8235;52.198;9.904;2023-02-18T08:26:29;100623.53;;;9.43;100.00
16255;BME280;8235;52.198;9.904;2023-02-18T08:28:57;100630.47;;;9.46;100.00
16255;BME280;8235;52.198;9.904;2023-02-18T08:31:26;100635.63;;;9.49;100.00
16255;BME280;8235;52.198;9.904;2023-02-18T08:33:53;100624.88;;;9.50;100.00
16255;BME280;8235;52.198;9.904;2023-02-18T08:36:21;100624.97;;;9.49;100.00
16255;BME280;8235;52.198;9.904;2023-02-18T08:38:47;100614.22;;;9.50;100.00
16255;BME280;8235;52.198;9.904;2023-02-18T08:41:14;100627.34;;;9.53;100.00
16255;BME280;8235;52.198;9.904;2023-02-18T08:43:43;100621.84;;;9.56;100.00
16255;BME280;8235;52.198;9.904;2023-02-18T08:46:11;100625.28;;;9.58;100.00
16255;BME280;8235;52.198;9.904;2023-02-18T08:48:37;100618.25;;;9.57;100.00
16255;BME280;8235;52.198;9.904;2023-02-18T08:51:12;100614.72;;;9.57;100.00
16255;BME280;8235;52.198;9.904;2023-02-18T08:53:38;100610.19;;;9.59;100.00
16255;BME280;8235;52.198;9.904;2023-02-18T08:56:06;100607.34;;;9.62;100.00
16255;BME280;8235;52.198;9.904;2023-02-18T08:58:33;100602.88;;;9.62;100.00
16255;BME280;8235;52.198;9.904;2023-02-18T09:01:02;100606.22;;;9.66;100.00
16255;BME280;8235;52.198;9.904;2023-02-18T09:03:30;100605.16;;;9.68;100.00
16255;BME280;8235;52.198;9.904;2023-02-18T09:05:58;100601.47;;;9.71;100.00
16255;BME280;8235;52.198;9.904;2023-02-18T09:08:25;100608.41;;;9.73;100.00
16255;BME280;8235;52.198;9.904;2023-02-18T09:10:54;100597.59;;;9.77;100.00
16255;BME280;8235;52.198;9.904;2023-02-18T09:13:23;100600.25;;;9.77;100.00
16255;BME280;8235;52.198;9.904;2023-02-18T09:15:58;100590.19;;;9.82;100.00
16255;BME280;8235;52.198;9.904;2023-02-18T09:18:24;100584.56;;;9.86;100.00
16255;BME280;8235;52.198;9.904;2023-02-18T09:20:55;100581.72;;;9.89;100.00
16255;BME280;8235;52.198;9.904;2023-02-18T09:23:22;100583.34;;;9.92;100.00
16255;BME280;8235;52.198;9.904;2023-02-18T09:25:49;100568.81;;;9.97;100.00
16255;BME280;8235;52.198;9.904;2023-02-18T09:28:15;100574.91;;;9.99;100.00
16255;BME280;8235;52.198;9.904;2023-02-18T09:30:42;100559.78;;;10.00;100.00
16255;BME280;8235;52.198;9.904;2023-02-18T09:33:09;100543.81;;;10.00;100.00
16255;BME280;8235;52.198;9.904;2023-02-18T09:35:38;100572.06;;;10.02;100.00
16255;BME280;8235;52.198;9.904;2023-02-18T09:38:06;100559.19;;;10.09;100.00
16255;BME280;8235;52.198;9.904;2023-02-18T09:40:34;100575.94;;;10.11;100.00
16255;BME280;8235;52.198;9.904;2023-02-18T09:43:03;100582.69;;;10.17;100.00
16255;BME280;8235;52.198;9.904;2023-02-18T09:45:30;100571.19;;;10.16;100.00
16255;BME280;8235;52.198;9.904;2023-02-18T09:47:57;100567.56;;;10.17;100.00
16255;BME280;8235;52.198;9.904;2023-02-18T09:50:26;100571.94;;;10.18;100.00
16255;BME280;8235;52.198;9.904;2023-02-18T09:52:55;100568.63;;;10.15;100.00
16255;BME280;8235;52.198;9.904;2023-02-18T09:55:27;100554.09;;;10.20;100.00
16255;BME280;8235;52.198;9.904;2023-02-18T09:57:56;100564.75;;;10.20;100.00
16255;BME280;8235;52.198;9.904;2023-02-18T10:00:38;100559.44;;;10.20;100.00
16255;BME280;8235;52.198;9.904;2023-02-18T10:03:11;100553.13;;;10.21;100.00
16255;BME280;8235;52.198;9.904;2023-02-18T10:05:41;100550.28;;;10.24;100.00
16255;BME280;8235;52.198;9.904;2023-02-18T10:08:17;100547.63;;;10.24;100.00
16255;BME280;8235;52.198;9.904;2023-02-18T10:10:46;100543.06;;;10.26;100.00
16255;BME280;8235;52.198;9.904;2023-02-18T10:13:15;100549.91;;;10.30;100.00
16255;BME280;8235;52.198;9.904;2023-02-18T10:15:44;100552.47;;;10.32;100.00
16255;BME280;8235;52.198;9.904;2023-02-18T10:18:21;100543.72;;;10.30;100.00
16255;BME280;8235;52.198;9.904;2023-02-18T10:20:51;100519.66;;;10.31;100.00
16255;BME280;8235;52.198;9.904;2023-02-18T10:23:19;100536.41;;;10.33;100.00
16255;BME280;8235;52.198;9.904;2023-02-18T10:25:48;100544.56;;;10.30;100.00
16255;BME280;8235;52.198;9.904;2023-02-18T10:28:18;100538.31;;;10.31;100.00
16255;BME280;8235;52.198;9.904;2023-02-18T10:30:51;100528.22;;;10.36;100.00
16255;BME280;8235;52.198;9.904;2023-02-18T10:33:30;100520.13;;;10.38;100.00
16255;BME280;8235;52.198;9.904;2023-02-18T10:36:05;100534.06;;;10.41;100.00
16255;BME280;8235;52.198;9.904;2023-02-18T10:38:42;100541.22;;;10.41;100.00
16255;BME280;8235;52.198;9.904;2023-02-18T10:41:19;100542.81;;;10.43;100.00
16255;BME280;8235;52.198;9.904;2023-02-18T10:43:53;100545.28;;;10.47;100.00
16255;BME280;8235;52.198;9.904;2023-02-18T10:46:28;100528.47;;;10.46;100.00
16255;BME280;8235;52.198;9.904;2023-02-18T10:49:07;100546.25;;;10.46;100.00
16255;BME280;8235;52.198;9.904;2023-02-18T10:51:36;100518.75;;;10.45;100.00
16255;BME280;8235;52.198;9.904;2023-02-18T10:54:05;100526.75;;;10.45;100.00
16255;BME280;8235;52.198;9.904;2023-02-18T10:56:37;100537.41;;;10.45;100.00
16255;BME280;8235;52.198;9.904;2023-02-18T10:59:13;100530.38;;;10.44;100.00
16255;BME280;8235;52.198;9.904;2023-02-18T11:01:41;100525.25;;;10.41;100.00
16255;BME280;8235;52.198;9.904;2023-02-18T11:04:14;100519.28;;;10.37;100.00
16255;BME280;8235;52.198;9.904;2023-02-18T11:06:44;100512.03;;;10.39;100.00
16255;BME280;8235;52.198;9.904;2023-02-18T11:09:25;100502.44;;;10.37;100.00
16255;BME280;8235;52.198;9.904;2023-02-18T11:12:01;100511.47;;;10.34;100.00
16255;BME280;8235;52.198;9.904;2023-02-18T11:14:39;100513.97;;;10.37;100.00
16255;BME280;8235;52.198;9.904;2023-02-18T11:17:14;100523.84;;;10.35;100.00
16255;BME280;8235;52.198;9.904;2023-02-18T11:19:41;100517.56;;;10.36;100.00
16255;BME280;8235;52.198;9.904;2023-02-18T11:22:14;100530.88;;;10.36;100.00
16255;BME280;8235;52.198;9.904;2023-02-18T11:24:42;100514.81;;;10.38;100.00
16255;BME280;8235;52.198;9.904;2023-02-18T11:27:20;100516.63;;;10.37;100.00
16255;BME280;8235;52.198;9.904;2023-02-18T11:29:50;100515.75;;;10.37;100.00
16255;BME280;8235;52.198;9.904;2023-02-18T11:32:17;100506.91;;;10.36;100.00
16255;BME280;8235;52.198;9.904;2023-02-18T11:34:45;100514.25;;;10.33;100.00
16255;BME280;8235;52.198;9.904;2023-02-18T11:37:17;100524.78;;;10.34;100.00
16255;BME280;8235;52.198;9.904;2023-02-18T11:39:45;100525.84;;;10.32;100.00
16255;BME280;8235;52.198;9.904;2023-02-18T11:42:17;100511.78;;;10.30;100.00
16255;BME280;8235;52.198;9.904;2023-02-18T11:44:48;100519.66;;;10.31;100.00
16255;BME280;8235;52.198;9.904;2023-02-18T11:47:22;100510.16;;;10.27;100.00
16255;BME280;8235;52.198;9.904;2023-02-18T11:52:43;100525.38;;;10.25;100.00
16255;BME280;8235;52.198;9.904;2023-02-18T11:55:16;100516.44;;;10.26;100.00
16255;BME280;8235;52.198;9.904;2023-02-18T11:57:48;100518.16;;;10.27;100.00
16255;BME280;8235;52.198;9.904;2023-02-18T12:00:20;100521.56;;;10.29;100.00
16255;BME280;8235;52.198;9.904;2023-02-18T12:02:48;100531.56;;;10.26;100.00
16255;BME280;8235;52.198;9.904;2023-02-18T12:05:19;100531.66;;;10.24;100.00
16255;BME280;8235;52.198;9.904;2023-02-18T12:07:48;100514.06;;;10.22;100.00
16255;BME280;8235;52.198;9.904;2023-02-18T12:10:24;100519.50;;;10.20;100.00
16255;BME280;8235;52.198;9.904;2023-02-18T12:12:59;100504.50;;;10.19;100.00
16255;BME280;8235;52.198;9.904;2023-02-18T12:15:32;100501.91;;;10.18;100.00
16255;BME280;8235;52.198;9.904;2023-02-18T12:18:23;100488.03;;;10.13;100.00
16255;BME280;8235;52.198;9.904;2023-02-18T12:21:00;100506.75;;;10.11;100.00
16255;BME280;8235;52.198;9.904;2023-02-18T12:23:34;100504.06;;;10.11;100.00
16255;BME280;8235;52.198;9.904;2023-02-18T12:26:12;100521.66;;;10.14;100.00
16255;BME280;8235;52.198;9.904;2023-02-18T12:28:56;100509.22;;;10.14;100.00
16255;BME280;8235;52.198;9.904;2023-02-18T12:31:47;100509.13;;;10.16;100.00
16255;BME280;8235;52.198;9.904;2023-02-18T12:34:40;100512.16;;;10.09;100.00
16255;BME280;8235;52.198;9.904;2023-02-18T12:37:19;100513.97;;;10.09;100.00
16255;BME280;8235;52.198;9.904;2023-02-18T12:40:02;100522.81;;;10.09;100.00
16255;BME280;8235;52.198;9.904;2023-02-18T12:42:44;100528.03;;;10.11;100.00
16255;BME280;8235;52.198;9.904;2023-02-18T12:45:44;100534.22;;;10.12;100.00
16255;BME280;8235;52.198;9.904;2023-02-18T12:48:33;100544.19;;;10.08;100.00
16255;BME280;8235;52.198;9.904;2023-02-18T12:51:10;100528.41;;;10.05;100.00
16255;BME280;8235;52.198;9.904;2023-02-18T12:53:59;100549.16;;;10.00;100.00
16255;BME280;8235;52.198;9.904;2023-02-18T12:56:47;100545.53;;;10.01;100.00
16255;BME280;8235;52.198;9.904;2023-02-18T12:59:48;100542.78;;;10.02;100.00
16255;BME280;8235;52.198;9.904;2023-02-18T13:02:38;100542.66;;;10.04;100.00
16255;BME280;8235;52.198;9.904;2023-02-18T13:05:23;100536.38;;;10.05;100.00
16255;BME280;8235;52.198;9.904;2023-02-18T13:08:08;100543.41;;;10.06;100.00
16255;BME280;8235;52.198;9.904;2023-02-18T13:10:55;100538.09;;;10.06;100.00
16255;BME280;8235;52.198;9.904;2023-02-18T13:13:30;100535.34;;;10.07;100.00
16255;BME280;8235;52.198;9.904;2023-02-18T13:16:01;100543.13;;;10.10;100.00
16255;BME280;8235;52.198;9.904;2023-02-18T13:18:32;100535.25;;;10.09;100.00
16255;BME280;8235;52.198;9.904;2023-02-18T13:21:04;100523.84;;;10.07;100.00
16255;BME280;8235;52.198;9.904;2023-02-18T13:23:33;100530.22;;;10.04;100.00